sensor_id;sensor_type;location;lat;lon;timestamp;P1;durP1;ratioP1;P2;durP2;ratioP2
10154;SDS011;5118;48.570;7.916;2023-09-19T00:00:39;3.87;;;2.00;;
10154;SDS011;5118;48.570;7.916;2023-09-19T00:03:09;2.50;;;1.70;;
10154;SDS011;5118;48.570;7.916;2023-09-19T00:05:39;2.70;;;1.77;;
10154;SDS011;5118;48.570;7.916;2023-09-19T00:08:12;2.63;;;1.60;;
10154;SDS011;5118;48.570;7.916;2023-09-19T00:10:43;2.70;;;1.80;;
10154;SDS011;5118;48.570;7.916;2023-09-19T00:13:12;3.07;;;1.80;;
10154;SDS011;5118;48.570;7.916;2023-09-19T00:15:43;1.80;;;1.70;;
10154;SDS011;5118;48.570;7.916;2023-09-19T00:18:16;1.97;;;1.77;;
10154;SDS011;5118;48.570;7.916;2023-09-19T00:20:49;1.83;;;1.70;;
10154;SDS011;5118;48.570;7.916;2023-09-19T00:23:19;3.10;;;1.60;;
10154;SDS011;5118;48.570;7.916;2023-09-19T00:25:49;1.53;;;1.43;;
10154;SDS011;5118;48.570;7.916;2023-09-19T00:28:18;2.60;;;1.50;;
10154;SDS011;5118;48.570;7.916;2023-09-19T00:30:47;3.17;;;1.60;;
10154;SDS011;5118;48.570;7.916;2023-09-19T00:33:18;3.50;;;1.60;;
10154;SDS011;5118;48.570;7.916;2023-09-19T00:35:47;2.30;;;1.60;;
10154;SDS011;5118;48.570;7.916;2023-09-19T00:38:16;2.97;;;1.77;;
10154;SDS011;5118;48.570;7.916;2023-09-19T00:40:47;1.77;;;1.53;;
10154;SDS011;5118;48.570;7.916;2023-09-19T00:43:18;3.23;;;1.87;;
10154;SDS011;5118;48.570;7.916;2023-09-19T00:45:48;3.70;;;1.80;;
10154;SDS011;5118;48.570;7.916;2023-09-19T00:48:20;4.07;;;2.10;;
10154;SDS011;5118;48.570;7.916;2023-09-19T00:50:49;2.97;;;1.80;;
10154;SDS011;5118;48.570;7.916;2023-09-19T00:53:19;2.73;;;2.00;;
10154;SDS011;5118;48.570;7.916;2023-09-19T00:55:54;2.90;;;1.93;;
10154;SDS011;5118;48.570;7.916;2023-09-19T00:58:23;3.77;;;2.17;;
10154;SDS011;5118;48.570;7.916;2023-09-19T01:00:52;2.47;;;2.00;;
10154;SDS011;5118;48.570;7.916;2023-09-19T01:03:21;2.83;;;1.80;;
10154;SDS011;5118;48.570;7.916;2023-09-19T01:05:50;2.77;;;2.00;;
10154;SDS011;5118;48.570;7.916;2023-09-19T01:08:19;4.00;;;1.90;;
10154;SDS011;5118;48.570;7.916;2023-09-19T01:10:50;3.83;;;1.97;;
10154;SDS011;5118;48.570;7.916;2023-09-19T01:13:24;2.13;;;1.90;;
10154;SDS011;5118;48.570;7.916;2023-09-19T01:15:59;3.60;;;2.00;;
10154;SDS011;5118;48.570;7.916;2023-09-19T01:18:35;2.10;;;1.90;;
10154;SDS011;5118;48.570;7.916;2023-09-19T01:21:14;4.20;;;2.00;;
10154;SDS011;5118;48.570;7.916;2023-09-19T01:24:00;3.37;;;2.10;;
10154;SDS011;5118;48.570;7.916;2023-09-19T01:30:05;3.03;;;1.93;;
10154;SDS011;5118;48.570;7.916;2023-09-19T01:32:36;5.03;;;2.00;;
10154;SDS011;5118;48.570;7.916;2023-09-19T01:35:08;3.90;;;2.03;;
10154;SDS011;5118;48.570;7.916;2023-09-19T01:37:40;2.65;;;2.00;;
10154;SDS011;5118;48.570;7.916;2023-09-19T01:40:11;3.17;;;2.13;;
10154;SDS011;5118;48.570;7.916;2023-09-19T01:42:45;3.17;;;2.17;;
10154;SDS011;5118;48.570;7.916;2023-09-19T01:45:21;3.20;;;2.15;;
10154;SDS011;5118;48.570;7.916;2023-09-19T01:47:59;3.42;;;2.28;;
10154;SDS011;5118;48.570;7.916;2023-09-19T01:50:42;4.73;;;2.13;;
10154;SDS011;5118;48.570;7.916;2023-09-19T01:53:19;3.25;;;2.28;;
10154;SDS011;5118;48.570;7.916;2023-09-19T01:55:54;3.73;;;2.20;;
10154;SDS011;5118;48.570;7.916;2023-09-19T01:58:27;3.83;;;2.17;;
10154;SDS011;5118;48.570;7.916;2023-09-19T02:01:02;5.83;;;2.60;;
10154;SDS011;5118;48.570;7.916;2023-09-19T02:03:33;4.23;;;2.10;;
10154;SDS011;5118;48.570;7.916;2023-09-19T02:06:02;3.57;;;2.33;;
10154;SDS011;5118;48.570;7.916;2023-09-19T02:08:32;5.97;;;2.33;;
10154;SDS011;5118;48.570;7.916;2023-09-19T02:11:02;4.40;;;2.33;;
10154;SDS011;5118;48.570;7.916;2023-09-19T02:13:30;3.70;;;2.30;;
10154;SDS011;5118;48.570;7.916;2023-09-19T02:15:59;6.90;;;2.33;;
10154;SDS011;5118;48.570;7.916;2023-09-19T02:18:29;3.63;;;2.43;;
10154;SDS011;5118;48.570;7.916;2023-09-19T02:20:58;3.77;;;2.30;;
10154;SDS011;5118;48.570;7.916;2023-09-19T02:23:26;3.03;;;2.50;;
10154;SDS011;5118;48.570;7.916;2023-09-19T02:25:56;4.77;;;2.30;;
10154;SDS011;5118;48.570;7.916;2023-09-19T02:28:27;7.63;;;2.50;;
10154;SDS011;5118;48.570;7.916;2023-09-19T02:30:56;4.63;;;2.70;;
10154;SDS011;5118;48.570;7.916;2023-09-19T02:33:25;4.33;;;2.50;;
10154;SDS011;5118;48.570;7.916;2023-09-19T02:35:56;5.90;;;2.70;;
10154;SDS011;5118;48.570;7.916;2023-09-19T02:38:25;4.78;;;2.60;;
10154;SDS011;5118;48.570;7.916;2023-09-19T02:40:54;5.60;;;2.60;;
10154;SDS011;5118;48.570;7.916;2023-09-19T02:43:22;6.23;;;2.50;;
10154;SDS011;5118;48.570;7.916;2023-09-19T02:45:51;4.20;;;2.60;;
10154;SDS011;5118;48.570;7.916;2023-09-19T02:48:21;5.32;;;2.75;;
10154;SDS011;5118;48.570;7.916;2023-09-19T02:50:50;5.53;;;2.43;;
10154;SDS011;5118;48.570;7.916;2023-09-19T02:53:20;5.45;;;2.67;;
10154;SDS011;5118;48.570;7.916;2023-09-19T02:55:49;3.88;;;2.40;;
10154;SDS011;5118;48.570;7.916;2023-09-19T02:58:21;3.35;;;2.60;;
10154;SDS011;5118;48.570;7.916;2023-09-19T03:00:51;4.30;;;2.58;;
10154;SDS011;5118;48.570;7.916;2023-09-19T03:03:23;2.97;;;2.40;;
10154;SDS011;5118;48.570;7.916;2023-09-19T03:05:52;3.43;;;2.50;;
10154;SDS011;5118;48.570;7.916;2023-09-19T03:08:23;5.70;;;2.42;;
10154;SDS011;5118;48.570;7.916;2023-09-19T03:10:52;6.13;;;2.60;;
10154;SDS011;5118;48.570;7.916;2023-09-19T03:13:20;4.00;;;2.50;;
10154;SDS011;5118;48.570;7.916;2023-09-19T03:15:49;10.38;;;3.05;;
10154;SDS011;5118;48.570;7.916;2023-09-19T03:18:23;5.68;;;3.20;;
10154;SDS011;5118;48.570;7.916;2023-09-19T03:20:53;4.53;;;3.00;;
10154;SDS011;5118;48.570;7.916;2023-09-19T03:23:24;7.40;;;3.80;;
10154;SDS011;5118;48.570;7.916;2023-09-19T03:25:54;5.53;;;3.67;;
10154;SDS011;5118;48.570;7.916;2023-09-19T03:28:25;9.30;;;3.93;;
10154;SDS011;5118;48.570;7.916;2023-09-19T03:30:58;4.97;;;3.13;;
10154;SDS011;5118;48.570;7.916;2023-09-19T03:33:30;7.67;;;3.90;;
10154;SDS011;5118;48.570;7.916;2023-09-19T03:36:01;6.10;;;3.50;;
10154;SDS011;5118;48.570;7.916;2023-09-19T03:38:33;6.37;;;2.80;;
10154;SDS011;5118;48.570;7.916;2023-09-19T03:41:02;7.13;;;3.47;;
10154;SDS011;5118;48.570;7.916;2023-09-19T03:43:33;6.97;;;3.90;;
10154;SDS011;5118;48.570;7.916;2023-09-19T03:46:03;8.47;;;3.90;;
10154;SDS011;5118;48.570;7.916;2023-09-19T03:48:33;5.40;;;3.00;;
10154;SDS011;5118;48.570;7.916;2023-09-19T03:51:06;4.73;;;3.27;;
10154;SDS011;5118;48.570;7.916;2023-09-19T03:53:36;4.87;;;3.40;;
10154;SDS011;5118;48.570;7.916;2023-09-19T03:56:05;7.77;;;3.67;;
10154;SDS011;5118;48.570;7.916;2023-09-19T03:58:34;5.47;;;3.10;;
10154;SDS011;5118;48.570;7.916;2023-09-19T04:01:06;4.63;;;3.23;;
10154;SDS011;5118;48.570;7.916;2023-09-19T04:03:34;4.93;;;3.23;;
10154;SDS011;5118;48.570;7.916;2023-09-19T04:06:13;5.10;;;2.70;;
10154;SDS011;5118;48.570;7.916;2023-09-19T04:08:42;8.27;;;2.83;;
10154;SDS011;5118;48.570;7.916;2023-09-19T04:11:12;4.70;;;2.90;;
10154;SDS011;5118;48.570;7.916;2023-09-19T04:13:41;6.77;;;3.10;;
10154;SDS011;5118;48.570;7.916;2023-09-19T04:16:10;4.60;;;2.60;;
10154;SDS011;5118;48.570;7.916;2023-09-19T04:18:39;4.40;;;2.90;;
10154;SDS011;5118;48.570;7.916;2023-09-19T04:21:08;5.23;;;2.90;;
10154;SDS011;5118;48.570;7.916;2023-09-19T04:23:37;5.17;;;2.90;;
10154;SDS011;5118;48.570;7.916;2023-09-19T04:26:07;7.30;;;3.17;;
10154;SDS011;5118;48.570;7.916;2023-09-19T04:28:36;6.63;;;3.00;;
10154;SDS011;5118;48.570;7.916;2023-09-19T04:31:05;7.40;;;3.20;;
10154;SDS011;5118;48.570;7.916;2023-09-19T04:33:36;5.77;;;3.10;;
10154;SDS011;5118;48.570;7.916;2023-09-19T04:36:05;4.20;;;3.30;;
10154;SDS011;5118;48.570;7.916;2023-09-19T04:38:54;3.10;;;2.80;;
10154;SDS011;5118;48.570;7.916;2023-09-19T04:41:23;5.40;;;3.30;;
10154;SDS011;5118;48.570;7.916;2023-09-19T04:43:52;7.00;;;3.30;;
10154;SDS011;5118;48.570;7.916;2023-09-19T04:46:22;5.30;;;3.27;;
10154;SDS011;5118;48.570;7.916;2023-09-19T04:48:50;5.07;;;3.67;;
10154;SDS011;5118;48.570;7.916;2023-09-19T04:51:19;6.60;;;3.40;;
10154;SDS011;5118;48.570;7.916;2023-09-19T04:53:47;5.93;;;4.23;;
10154;SDS011;5118;48.570;7.916;2023-09-19T04:56:16;6.00;;;4.00;;
10154;SDS011;5118;48.570;7.916;2023-09-19T04:58:46;4.50;;;3.53;;
10154;SDS011;5118;48.570;7.916;2023-09-19T05:01:15;5.93;;;3.47;;
10154;SDS011;5118;48.570;7.916;2023-09-19T05:03:44;6.80;;;3.70;;
10154;SDS011;5118;48.570;7.916;2023-09-19T05:06:15;7.37;;;3.33;;
10154;SDS011;5118;48.570;7.916;2023-09-19T05:08:44;6.80;;;3.60;;
10154;SDS011;5118;48.570;7.916;2023-09-19T05:11:12;6.43;;;3.77;;
10154;SDS011;5118;48.570;7.916;2023-09-19T05:13:41;4.13;;;3.55;;
10154;SDS011;5118;48.570;7.916;2023-09-19T05:16:11;4.40;;;3.50;;
10154;SDS011;5118;48.570;7.916;2023-09-19T05:18:39;6.87;;;4.67;;
10154;SDS011;5118;48.570;7.916;2023-09-19T05:21:08;9.03;;;6.47;;
10154;SDS011;5118;48.570;7.916;2023-09-19T05:23:37;9.23;;;4.70;;
10154;SDS011;5118;48.570;7.916;2023-09-19T05:26:05;7.07;;;4.70;;
10154;SDS011;5118;48.570;7.916;2023-09-19T05:28:34;5.77;;;4.50;;
10154;SDS011;5118;48.570;7.916;2023-09-19T05:31:02;8.43;;;4.33;;
10154;SDS011;5118;48.570;7.916;2023-09-19T05:33:32;10.47;;;4.70;;
10154;SDS011;5118;48.570;7.916;2023-09-19T05:36:01;6.17;;;4.67;;
10154;SDS011;5118;48.570;7.916;2023-09-19T05:38:30;11.00;;;5.10;;
10154;SDS011;5118;48.570;7.916;2023-09-19T05:40:59;6.40;;;4.20;;
10154;SDS011;5118;48.570;7.916;2023-09-19T05:43:28;6.22;;;4.00;;
10154;SDS011;5118;48.570;7.916;2023-09-19T05:45:59;5.93;;;3.60;;
10154;SDS011;5118;48.570;7.916;2023-09-19T05:48:27;8.20;;;3.92;;
10154;SDS011;5118;48.570;7.916;2023-09-19T05:50:57;8.07;;;4.03;;
10154;SDS011;5118;48.570;7.916;2023-09-19T05:53:25;8.52;;;4.05;;
10154;SDS011;5118;48.570;7.916;2023-09-19T05:55:55;6.90;;;3.60;;
10154;SDS011;5118;48.570;7.916;2023-09-19T05:58:23;6.67;;;3.90;;
10154;SDS011;5118;48.570;7.916;2023-09-19T06:00:52;4.87;;;3.43;;
10154;SDS011;5118;48.570;7.916;2023-09-19T06:03:22;8.40;;;3.80;;
10154;SDS011;5118;48.570;7.916;2023-09-19T06:05:51;6.13;;;3.70;;
10154;SDS011;5118;48.570;7.916;2023-09-19T06:08:25;5.53;;;3.53;;
10154;SDS011;5118;48.570;7.916;2023-09-19T06:10:54;5.38;;;3.42;;
10154;SDS011;5118;48.570;7.916;2023-09-19T06:13:23;5.63;;;3.53;;
10154;SDS011;5118;48.570;7.916;2023-09-19T06:15:54;6.40;;;3.30;;
10154;SDS011;5118;48.570;7.916;2023-09-19T06:18:24;4.73;;;3.20;;
10154;SDS011;5118;48.570;7.916;2023-09-19T06:20:53;6.23;;;2.80;;
10154;SDS011;5118;48.570;7.916;2023-09-19T06:23:22;4.57;;;3.00;;
10154;SDS011;5118;48.570;7.916;2023-09-19T06:25:52;4.68;;;2.70;;
10154;SDS011;5118;48.570;7.916;2023-09-19T06:28:21;3.17;;;2.80;;
10154;SDS011;5118;48.570;7.916;2023-09-19T06:30:52;4.27;;;2.57;;
10154;SDS011;5118;48.570;7.916;2023-09-19T06:33:20;5.90;;;2.87;;
10154;SDS011;5118;48.570;7.916;2023-09-19T06:35:49;6.20;;;2.87;;
10154;SDS011;5118;48.570;7.916;2023-09-19T06:38:19;5.43;;;2.63;;
10154;SDS011;5118;48.570;7.916;2023-09-19T06:40:48;5.50;;;2.60;;
10154;SDS011;5118;48.570;7.916;2023-09-19T06:43:18;6.30;;;2.70;;
10154;SDS011;5118;48.570;7.916;2023-09-19T06:45:46;4.13;;;2.70;;
10154;SDS011;5118;48.570;7.916;2023-09-19T06:48:15;4.65;;;2.13;;
10154;SDS011;5118;48.570;7.916;2023-09-19T06:50:43;4.03;;;2.30;;
10154;SDS011;5118;48.570;7.916;2023-09-19T06:53:12;4.00;;;2.50;;
10154;SDS011;5118;48.570;7.916;2023-09-19T06:55:40;2.63;;;2.20;;
10154;SDS011;5118;48.570;7.916;2023-09-19T06:58:10;6.95;;;2.42;;
10154;SDS011;5118;48.570;7.916;2023-09-19T07:00:40;3.78;;;2.10;;
10154;SDS011;5118;48.570;7.916;2023-09-19T07:03:09;2.30;;;2.10;;
10154;SDS011;5118;48.570;7.916;2023-09-19T07:05:39;4.28;;;2.30;;
10154;SDS011;5118;48.570;7.916;2023-09-19T07:08:09;3.60;;;2.00;;
10154;SDS011;5118;48.570;7.916;2023-09-19T07:10:39;2.10;;;1.90;;
10154;SDS011;5118;48.570;7.916;2023-09-19T07:13:15;3.75;;;1.92;;
10154;SDS011;5118;48.570;7.916;2023-09-19T07:15:46;4.38;;;1.85;;
10154;SDS011;5118;48.570;7.916;2023-09-19T07:18:15;3.92;;;2.17;;
10154;SDS011;5118;48.570;7.916;2023-09-19T07:20:44;4.20;;;2.35;;
10154;SDS011;5118;48.570;7.916;2023-09-19T07:23:16;3.00;;;2.05;;
10154;SDS011;5118;48.570;7.916;2023-09-19T07:25:45;4.10;;;2.10;;
10154;SDS011;5118;48.570;7.916;2023-09-19T07:28:15;3.30;;;1.95;;
10154;SDS011;5118;48.570;7.916;2023-09-19T07:30:45;3.25;;;1.98;;
10154;SDS011;5118;48.570;7.916;2023-09-19T07:33:13;3.13;;;1.73;;
10154;SDS011;5118;48.570;7.916;2023-09-19T07:35:44;2.80;;;1.98;;
10154;SDS011;5118;48.570;7.916;2023-09-19T07:38:13;4.38;;;2.20;;
10154;SDS011;5118;48.570;7.916;2023-09-19T07:40:42;3.13;;;2.00;;
10154;SDS011;5118;48.570;7.916;2023-09-19T07:43:11;2.38;;;2.00;;
10154;SDS011;5118;48.570;7.916;2023-09-19T07:45:39;3.47;;;1.75;;
10154;SDS011;5118;48.570;7.916;2023-09-19T07:48:09;3.25;;;1.85;;
10154;SDS011;5118;48.570;7.916;2023-09-19T07:50:41;2.10;;;1.80;;
10154;SDS011;5118;48.570;7.916;2023-09-19T07:53:11;3.50;;;1.73;;
10154;SDS011;5118;48.570;7.916;2023-09-19T07:55:40;3.15;;;1.67;;
10154;SDS011;5118;48.570;7.916;2023-09-19T07:58:09;2.13;;;1.80;;
10154;SDS011;5118;48.570;7.916;2023-09-19T08:00:37;3.58;;;1.75;;
10154;SDS011;5118;48.570;7.916;2023-09-19T08:03:06;2.85;;;1.90;;
10154;SDS011;5118;48.570;7.916;2023-09-19T08:05:44;2.28;;;1.70;;
10154;SDS011;5118;48.570;7.916;2023-09-19T08:08:15;3.15;;;1.75;;
10154;SDS011;5118;48.570;7.916;2023-09-19T08:10:43;4.32;;;1.95;;
10154;SDS011;5118;48.570;7.916;2023-09-19T08:13:15;1.77;;;1.50;;
10154;SDS011;5118;48.570;7.916;2023-09-19T08:15:44;3.10;;;1.83;;
10154;SDS011;5118;48.570;7.916;2023-09-19T08:18:14;2.92;;;1.70;;
10154;SDS011;5118;48.570;7.916;2023-09-19T08:20:48;3.72;;;1.70;;
10154;SDS011;5118;48.570;7.916;2023-09-19T08:23:17;1.73;;;1.60;;
10154;SDS011;5118;48.570;7.916;2023-09-19T08:25:47;3.50;;;1.67;;
10154;SDS011;5118;48.570;7.916;2023-09-19T08:28:15;2.10;;;1.70;;
10154;SDS011;5118;48.570;7.916;2023-09-19T08:30:45;3.03;;;1.90;;
10154;SDS011;5118;48.570;7.916;2023-09-19T08:33:14;3.20;;;1.60;;
10154;SDS011;5118;48.570;7.916;2023-09-19T08:35:42;3.30;;;1.63;;
10154;SDS011;5118;48.570;7.916;2023-09-19T08:38:13;3.25;;;1.60;;
10154;SDS011;5118;48.570;7.916;2023-09-19T08:40:42;4.28;;;2.20;;
10154;SDS011;5118;48.570;7.916;2023-09-19T08:43:11;3.83;;;1.50;;
10154;SDS011;5118;48.570;7.916;2023-09-19T08:45:39;2.83;;;1.77;;
10154;SDS011;5118;48.570;7.916;2023-09-19T08:48:22;2.80;;;1.70;;
10154;SDS011;5118;48.570;7.916;2023-09-19T08:50:58;2.28;;;1.80;;
10154;SDS011;5118;48.570;7.916;2023-09-19T08:53:31;2.83;;;1.77;;
10154;SDS011;5118;48.570;7.916;2023-09-19T08:56:06;2.55;;;1.73;;
10154;SDS011;5118;48.570;7.916;2023-09-19T08:58:39;4.78;;;1.67;;
10154;SDS011;5118;48.570;7.916;2023-09-19T09:01:14;2.85;;;1.88;;
10154;SDS011;5118;48.570;7.916;2023-09-19T09:03:43;3.95;;;1.63;;
10154;SDS011;5118;48.570;7.916;2023-09-19T09:06:16;1.75;;;1.50;;
10154;SDS011;5118;48.570;7.916;2023-09-19T09:08:47;3.17;;;1.65;;
10154;SDS011;5118;48.570;7.916;2023-09-19T09:11:17;2.03;;;1.70;;
10154;SDS011;5118;48.570;7.916;2023-09-19T09:13:47;3.65;;;1.50;;
10154;SDS011;5118;48.570;7.916;2023-09-19T09:16:16;1.90;;;1.48;;
10154;SDS011;5118;48.570;7.916;2023-09-19T09:18:46;5.80;;;1.83;;
10154;SDS011;5118;48.570;7.916;2023-09-19T09:21:25;3.33;;;1.75;;
10154;SDS011;5118;48.570;7.916;2023-09-19T09:23:55;2.90;;;1.70;;
10154;SDS011;5118;48.570;7.916;2023-09-19T09:26:43;2.95;;;1.70;;
10154;SDS011;5118;48.570;7.916;2023-09-19T09:29:12;2.25;;;1.60;;
10154;SDS011;5118;48.570;7.916;2023-09-19T09:31:47;1.52;;;1.42;;
10154;SDS011;5118;48.570;7.916;2023-09-19T09:34:17;2.22;;;1.60;;
10154;SDS011;5118;48.570;7.916;2023-09-19T09:36:49;4.47;;;1.65;;
10154;SDS011;5118;48.570;7.916;2023-09-19T09:39:29;2.10;;;1.88;;
10154;SDS011;5118;48.570;7.916;2023-09-19T09:41:59;3.92;;;1.80;;
10154;SDS011;5118;48.570;7.916;2023-09-19T09:44:33;2.35;;;1.58;;
10154;SDS011;5118;48.570;7.916;2023-09-19T09:47:02;1.92;;;1.40;;
10154;SDS011;5118;48.570;7.916;2023-09-19T09:49:48;2.55;;;1.85;;
10154;SDS011;5118;48.570;7.916;2023-09-19T09:52:45;2.08;;;1.67;;
10154;SDS011;5118;48.570;7.916;2023-09-19T09:55:14;2.40;;;1.58;;
10154;SDS011;5118;48.570;7.916;2023-09-19T09:57:42;1.67;;;1.40;;
10154;SDS011;5118;48.570;7.916;2023-09-19T10:00:13;2.85;;;1.52;;
10154;SDS011;5118;48.570;7.916;2023-09-19T10:02:47;1.70;;;1.48;;
10154;SDS011;5118;48.570;7.916;2023-09-19T10:05:16;3.50;;;1.65;;
10154;SDS011;5118;48.570;7.916;2023-09-19T10:07:50;1.75;;;1.40;;
10154;SDS011;5118;48.570;7.916;2023-09-19T10:10:30;3.15;;;1.50;;
10154;SDS011;5118;48.570;7.916;2023-09-19T10:13:13;3.38;;;1.60;;
10154;SDS011;5118;48.570;7.916;2023-09-19T10:15:48;2.67;;;1.70;;
10154;SDS011;5118;48.570;7.916;2023-09-19T10:18:19;2.00;;;1.40;;
10154;SDS011;5118;48.570;7.916;2023-09-19T10:20:49;4.35;;;1.45;;
10154;SDS011;5118;48.570;7.916;2023-09-19T10:23:19;2.28;;;1.35;;
10154;SDS011;5118;48.570;7.916;2023-09-19T10:25:50;2.45;;;1.50;;
10154;SDS011;5118;48.570;7.916;2023-09-19T10:28:20;2.97;;;1.40;;
10154;SDS011;5118;48.570;7.916;2023-09-19T10:30:53;2.28;;;1.42;;
10154;SDS011;5118;48.570;7.916;2023-09-19T10:33:23;2.83;;;1.63;;
10154;SDS011;5118;48.570;7.916;2023-09-19T10:35:53;2.55;;;1.58;;
10154;SDS011;5118;48.570;7.916;2023-09-19T10:38:25;1.40;;;1.20;;
10154;SDS011;5118;48.570;7.916;2023-09-19T10:40:56;2.33;;;1.65;;
10154;SDS011;5118;48.570;7.916;2023-09-19T10:43:29;1.88;;;1.38;;
10154;SDS011;5118;48.570;7.916;2023-09-19T10:46:02;3.92;;;1.60;;
10154;SDS011;5118;48.570;7.916;2023-09-19T10:48:34;2.47;;;1.30;;
10154;SDS011;5118;48.570;7.916;2023-09-19T10:51:04;2.05;;;1.25;;
10154;SDS011;5118;48.570;7.916;2023-09-19T10:53:43;1.40;;;1.30;;
10154;SDS011;5118;48.570;7.916;2023-09-19T10:56:18;2.95;;;1.50;;
10154;SDS011;5118;48.570;7.916;2023-09-19T10:58:51;1.55;;;1.40;;
10154;SDS011;5118;48.570;7.916;2023-09-19T11:01:19;1.40;;;1.25;;
10154;SDS011;5118;48.570;7.916;2023-09-19T11:03:48;2.33;;;1.90;;
10154;SDS011;5118;48.570;7.916;2023-09-19T11:06:59;2.45;;;1.48;;
10154;SDS011;5118;48.570;7.916;2023-09-19T11:09:45;2.15;;;1.50;;
10154;SDS011;5118;48.570;7.916;2023-09-19T11:18:52;2.45;;;1.30;;
10154;SDS011;5118;48.570;7.916;2023-09-19T11:21:41;1.38;;;1.27;;
10154;SDS011;5118;48.570;7.916;2023-09-19T11:24:27;2.13;;;1.40;;
10154;SDS011;5118;48.570;7.916;2023-09-19T11:27:11;1.48;;;1.23;;
10154;SDS011;5118;48.570;7.916;2023-09-19T11:29:41;2.50;;;1.30;;
10154;SDS011;5118;48.570;7.916;2023-09-19T11:32:09;1.30;;;1.20;;
10154;SDS011;5118;48.570;7.916;2023-09-19T11:34:47;2.35;;;1.20;;
10154;SDS011;5118;48.570;7.916;2023-09-19T11:40:39;1.55;;;1.30;;
10154;SDS011;5118;48.570;7.916;2023-09-19T11:43:30;1.63;;;1.50;;
10154;SDS011;5118;48.570;7.916;2023-09-19T11:46:04;1.92;;;1.40;;
10154;SDS011;5118;48.570;7.916;2023-09-19T11:48:34;3.28;;;1.38;;
10154;SDS011;5118;48.570;7.916;2023-09-19T11:51:13;3.65;;;1.40;;
10154;SDS011;5118;48.570;7.916;2023-09-19T11:53:46;1.20;;;1.10;;
10154;SDS011;5118;48.570;7.916;2023-09-19T11:56:17;1.48;;;1.35;;
10154;SDS011;5118;48.570;7.916;2023-09-19T11:58:50;2.10;;;1.35;;
10154;SDS011;5118;48.570;7.916;2023-09-19T12:01:21;3.92;;;1.30;;
10154;SDS011;5118;48.570;7.916;2023-09-19T12:03:52;1.40;;;1.30;;
10154;SDS011;5118;48.570;7.916;2023-09-19T12:06:24;2.75;;;1.40;;
10154;SDS011;5118;48.570;7.916;2023-09-19T12:08:53;2.03;;;1.50;;
10154;SDS011;5118;48.570;7.916;2023-09-19T12:11:26;2.25;;;1.40;;
10154;SDS011;5118;48.570;7.916;2023-09-19T12:13:58;1.50;;;1.40;;
10154;SDS011;5118;48.570;7.916;2023-09-19T12:16:28;1.45;;;1.20;;
10154;SDS011;5118;48.570;7.916;2023-09-19T12:18:57;1.90;;;1.20;;
10154;SDS011;5118;48.570;7.916;2023-09-19T12:21:45;1.35;;;1.25;;
10154;SDS011;5118;48.570;7.916;2023-09-19T12:24:23;1.60;;;1.13;;
10154;SDS011;5118;48.570;7.916;2023-09-19T12:26:53;1.30;;;1.20;;
10154;SDS011;5118;48.570;7.916;2023-09-19T12:29:24;1.25;;;1.15;;
10154;SDS011;5118;48.570;7.916;2023-09-19T12:31:54;1.30;;;1.20;;
10154;SDS011;5118;48.570;7.916;2023-09-19T12:34:24;1.30;;;1.20;;
10154;SDS011;5118;48.570;7.916;2023-09-19T12:39:48;3.17;;;1.48;;
10154;SDS011;5118;48.570;7.916;2023-09-19T12:42:19;1.35;;;1.20;;
10154;SDS011;5118;48.570;7.916;2023-09-19T12:44:51;1.38;;;1.27;;
10154;SDS011;5118;48.570;7.916;2023-09-19T12:47:22;1.58;;;1.40;;
10154;SDS011;5118;48.570;7.916;2023-09-19T12:50:11;1.23;;;1.10;;
10154;SDS011;5118;48.570;7.916;2023-09-19T12:52:45;1.30;;;1.20;;
10154;SDS011;5118;48.570;7.916;2023-09-19T12:55:19;1.25;;;1.10;;
10154;SDS011;5118;48.570;7.916;2023-09-19T12:57:56;1.50;;;1.30;;
10154;SDS011;5118;48.570;7.916;2023-09-19T13:00:35;2.50;;;1.50;;
10154;SDS011;5118;48.570;7.916;2023-09-19T13:03:11;2.60;;;1.38;;
10154;SDS011;5118;48.570;7.916;2023-09-19T13:05:49;2.67;;;1.35;;
10154;SDS011;5118;48.570;7.916;2023-09-19T13:08:24;1.17;;;1.05;;
10154;SDS011;5118;48.570;7.916;2023-09-19T13:11:05;1.45;;;1.17;;
10154;SDS011;5118;48.570;7.916;2023-09-19T13:13:37;1.15;;;1.10;;
10154;SDS011;5118;48.570;7.916;2023-09-19T13:16:10;1.67;;;1.30;;
10154;SDS011;5118;48.570;7.916;2023-09-19T13:18:42;1.40;;;1.20;;
10154;SDS011;5118;48.570;7.916;2023-09-19T13:21:17;2.28;;;1.10;;
10154;SDS011;5118;48.570;7.916;2023-09-19T13:23:56;1.80;;;1.20;;
10154;SDS011;5118;48.570;7.916;2023-09-19T13:26:44;1.13;;;1.00;;
10154;SDS011;5118;48.570;7.916;2023-09-19T13:29:13;1.50;;;1.17;;
10154;SDS011;5118;48.570;7.916;2023-09-19T13:31:46;1.15;;;1.05;;
10154;SDS011;5118;48.570;7.916;2023-09-19T13:34:15;1.10;;;1.10;;
10154;SDS011;5118;48.570;7.916;2023-09-19T13:36:44;1.35;;;1.25;;
10154;SDS011;5118;48.570;7.916;2023-09-19T13:39:15;1.65;;;1.00;;
10154;SDS011;5118;48.570;7.916;2023-09-19T13:41:44;1.30;;;1.20;;
10154;SDS011;5118;48.570;7.916;2023-09-19T13:44:13;1.38;;;1.20;;
10154;SDS011;5118;48.570;7.916;2023-09-19T13:46:44;1.67;;;1.00;;
10154;SDS011;5118;48.570;7.916;2023-09-19T13:49:15;2.78;;;1.00;;
10154;SDS011;5118;48.570;7.916;2023-09-19T13:51:47;0.95;;;0.95;;
10154;SDS011;5118;48.570;7.916;2023-09-19T13:54:15;1.40;;;1.02;;
10154;SDS011;5118;48.570;7.916;2023-09-19T13:56:44;1.10;;;1.00;;
10154;SDS011;5118;48.570;7.916;2023-09-19T13:59:12;1.00;;;1.00;;
10154;SDS011;5118;48.570;7.916;2023-09-19T14:01:40;1.05;;;0.90;;
10154;SDS011;5118;48.570;7.916;2023-09-19T14:04:09;1.58;;;1.10;;
10154;SDS011;5118;48.570;7.916;2023-09-19T14:06:42;3.47;;;1.13;;
10154;SDS011;5118;48.570;7.916;2023-09-19T14:09:12;1.30;;;1.17;;
10154;SDS011;5118;48.570;7.916;2023-09-19T14:11:40;1.75;;;1.08;;
10154;SDS011;5118;48.570;7.916;2023-09-19T14:14:09;1.08;;;1.02;;
10154;SDS011;5118;48.570;7.916;2023-09-19T14:16:37;1.08;;;1.00;;
10154;SDS011;5118;48.570;7.916;2023-09-19T14:19:07;2.85;;;1.20;;
10154;SDS011;5118;48.570;7.916;2023-09-19T14:21:35;1.13;;;1.02;;
10154;SDS011;5118;48.570;7.916;2023-09-19T14:24:07;1.30;;;1.20;;
10154;SDS011;5118;48.570;7.916;2023-09-19T14:26:36;1.20;;;1.10;;
10154;SDS011;5118;48.570;7.916;2023-09-19T14:29:04;1.10;;;1.02;;
10154;SDS011;5118;48.570;7.916;2023-09-19T14:31:36;1.88;;;1.10;;
10154;SDS011;5118;48.570;7.916;2023-09-19T14:34:06;1.00;;;1.00;;
10154;SDS011;5118;48.570;7.916;2023-09-19T14:36:36;2.88;;;1.23;;
10154;SDS011;5118;48.570;7.916;2023-09-19T14:39:07;1.50;;;1.10;;
10154;SDS011;5118;48.570;7.916;2023-09-19T14:41:35;1.20;;;1.10;;
10154;SDS011;5118;48.570;7.916;2023-09-19T14:44:04;3.15;;;1.20;;
10154;SDS011;5118;48.570;7.916;2023-09-19T14:46:35;2.05;;;1.10;;
10154;SDS011;5118;48.570;7.916;2023-09-19T14:49:03;1.30;;;1.20;;
10154;SDS011;5118;48.570;7.916;2023-09-19T14:51:32;1.17;;;1.08;;
10154;SDS011;5118;48.570;7.916;2023-09-19T14:54:02;1.58;;;1.00;;
10154;SDS011;5118;48.570;7.916;2023-09-19T14:56:32;1.02;;;1.00;;
10154;SDS011;5118;48.570;7.916;2023-09-19T14:59:01;2.05;;;1.33;;
10154;SDS011;5118;48.570;7.916;2023-09-19T15:01:31;1.65;;;1.10;;
10154;SDS011;5118;48.570;7.916;2023-09-19T15:03:59;1.20;;;1.10;;
10154;SDS011;5118;48.570;7.916;2023-09-19T15:06:28;2.75;;;1.08;;
10154;SDS011;5118;48.570;7.916;2023-09-19T15:08:57;1.00;;;0.85;;
10154;SDS011;5118;48.570;7.916;2023-09-19T15:11:25;2.53;;;1.15;;
10154;SDS011;5118;48.570;7.916;2023-09-19T15:13:55;1.65;;;0.90;;
10154;SDS011;5118;48.570;7.916;2023-09-19T15:16:25;2.35;;;1.10;;
10154;SDS011;5118;48.570;7.916;2023-09-19T15:18:54;1.08;;;1.08;;
10154;SDS011;5118;48.570;7.916;2023-09-19T15:21:22;3.00;;;1.10;;
10154;SDS011;5118;48.570;7.916;2023-09-19T15:23:51;1.15;;;1.05;;
10154;SDS011;5118;48.570;7.916;2023-09-19T15:26:19;1.63;;;1.00;;
10154;SDS011;5118;48.570;7.916;2023-09-19T15:28:48;1.35;;;0.93;;
10154;SDS011;5118;48.570;7.916;2023-09-19T15:31:18;1.33;;;1.02;;
10154;SDS011;5118;48.570;7.916;2023-09-19T15:33:47;0.98;;;0.95;;
10154;SDS011;5118;48.570;7.916;2023-09-19T15:36:15;2.15;;;1.10;;
10154;SDS011;5118;48.570;7.916;2023-09-19T15:38:54;1.98;;;1.02;;
10154;SDS011;5118;48.570;7.916;2023-09-19T15:41:27;1.20;;;0.93;;